sensor_id;sensor_type;location;lat;lon;timestamp;pressure;altitude;pressure_sealevel;temperature;humidity
60319;BME280;46163;52.306;5.634;2023-12-29T00:01:24;100461.94;;;8.68;100.00
60319;BME280;46163;52.306;5.634;2023-12-29T00:03:49;100451.78;;;8.78;100.00
60319;BME280;46163;52.306;5.634;2023-12-29T00:06:14;100455.69;;;8.83;100.00
60319;BME280;46163;52.306;5.634;2023-12-29T00:08:40;100442.56;;;8.74;100.00
60319;BME280;46163;52.306;5.634;2023-12-29T00:11:05;100444.22;;;8.75;100.00
60319;BME280;46163;52.306;5.634;2023-12-29T00:13:30;100447.50;;;8.77;100.00
60319;BME280;46163;52.306;5.634;2023-12-29T00:15:56;100436.72;;;8.92;100.00
60319;BME280;46163;52.306;5.634;2023-12-29T00:18:22;100435.53;;;8.95;100.00
60319;BME280;46163;52.306;5.634;2023-12-29T00:20:48;100445.72;;;8.98;100.00
60319;BME280;46163;52.306;5.634;2023-12-29T00:23:13;100424.28;;;8.93;100.00
60319;BME280;46163;52.306;5.634;2023-12-29T00:25:38;100425.50;;;8.90;100.00
60319;BME280;46163;52.306;5.634;2023-12-29T00:28:05;100433.63;;;8.82;100.00
60319;BME280;46163;52.306;5.634;2023-12-29T00:30:31;100445.94;;;8.96;100.00
60319;BME280;46163;52.306;5.634;2023-12-29T00:32:57;100450.59;;;8.88;100.00
60319;BME280;46163;52.306;5.634;2023-12-29T00:35:22;100457.56;;;8.95;100.00
60319;BME280;46163;52.306;5.634;2023-12-29T00:37:50;100450.19;;;8.91;100.00
60319;BME280;46163;52.306;5.634;2023-12-29T00:40:16;100446.53;;;8.92;100.00
60319;BME280;46163;52.306;5.634;2023-12-29T00:42:41;100449.97;;;8.86;100.00
60319;BME280;46163;52.306;5.634;2023-12-29T00:45:07;100442.63;;;8.81;100.00
60319;BME280;46163;52.306;5.634;2023-12-29T00:47:33;100445.88;;;8.83;100.00
60319;BME280;46163;52.306;5.634;2023-12-29T00:49:59;100407.28;;;8.74;100.00
60319;BME280;46163;52.306;5.634;2023-12-29T00:52:24;100411.59;;;8.82;100.00
60319;BME280;46163;52.306;5.634;2023-12-29T00:54:50;100409.97;;;8.81;100.00
60319;BME280;46163;52.306;5.634;2023-12-29T00:57:15;100414.84;;;8.84;100.00
60319;BME280;46163;52.306;5.634;2023-12-29T00:59:40;100413.44;;;8.88;100.00
60319;BME280;46163;52.306;5.634;2023-12-29T01:02:06;100403.84;;;8.87;100.00
60319;BME280;46163;52.306;5.634;2023-12-29T01:04:32;100412.19;;;8.84;100.00
60319;BME280;46163;52.306;5.634;2023-12-29T01:06:58;100411.00;;;8.86;100.00
60319;BME280;46163;52.306;5.634;2023-12-29T01:09:23;100408.97;;;8.88;100.00
60319;BME280;46163;52.306;5.634;2023-12-29T01:11:49;100412.84;;;8.92;100.00
60319;BME280;46163;52.306;5.634;2023-12-29T01:14:15;100394.31;;;9.05;100.00
60319;BME280;46163;52.306;5.634;2023-12-29T01:16:41;100387.34;;;8.98;100.00
60319;BME280;46163;52.306;5.634;2023-12-29T01:19:07;100388.38;;;9.03;100.00
60319;BME280;46163;52.306;5.634;2023-12-29T01:21:33;100390.03;;;9.18;100.00
60319;BME280;46163;52.306;5.634;2023-12-29T01:24:00;100382.47;;;9.08;100.00
60319;BME280;46163;52.306;5.634;2023-12-29T01:26:26;100374.50;;;9.08;100.00
60319;BME280;46163;52.306;5.634;2023-12-29T01:29:22;100391.25;;;9.09;100.00
60319;BME280;46163;52.306;5.634;2023-12-29T01:31:48;100383.47;;;9.00;100.00
60319;BME280;46163;52.306;5.634;2023-12-29T01:34:13;100385.31;;;9.20;100.00
60319;BME280;46163;52.306;5.634;2023-12-29T01:36:39;100360.59;;;8.99;100.00
60319;BME280;46163;52.306;5.634;2023-12-29T01:39:04;100393.72;;;9.23;99.96
60319;BME280;46163;52.306;5.634;2023-12-29T01:41:30;100382.88;;;9.18;100.00
60319;BME280;46163;52.306;5.634;2023-12-29T01:46:33;100384.53;;;9.26;99.48
60319;BME280;46163;52.306;5.634;2023-12-29T01:48:59;100389.63;;;9.34;99.16
60319;BME280;46163;52.306;5.634;2023-12-29T01:51:27;100397.81;;;9.32;98.80
60319;BME280;46163;52.306;5.634;2023-12-29T01:53:54;100389.84;;;9.39;98.81
60319;BME280;46163;52.306;5.634;2023-12-29T01:56:21;100376.34;;;9.34;99.52
60319;BME280;46163;52.306;5.634;2023-12-29T01:58:49;100378.19;;;9.27;100.00
60319;BME280;46163;52.306;5.634;2023-12-29T02:01:15;100383.72;;;9.32;98.41
60319;BME280;46163;52.306;5.634;2023-12-29T02:03:44;100363.50;;;9.24;99.32
60319;BME280;46163;52.306;5.634;2023-12-29T02:06:10;100384.31;;;9.27;99.21
60319;BME280;46163;52.306;5.634;2023-12-29T02:08:40;100380.81;;;9.20;100.00
60319;BME280;46163;52.306;5.634;2023-12-29T02:11:06;100380.00;;;9.20;99.57
60319;BME280;46163;52.306;5.634;2023-12-29T02:13:31;100393.75;;;9.30;99.52
60319;BME280;46163;52.306;5.634;2023-12-29T02:16:02;100390.84;;;9.25;99.84
60319;BME280;46163;52.306;5.634;2023-12-29T02:18:33;100380.22;;;9.18;100.00
60319;BME280;46163;52.306;5.634;2023-12-29T02:20:59;100384.91;;;9.16;100.00
60319;BME280;46163;52.306;5.634;2023-12-29T02:23:24;100392.25;;;9.21;99.70
60319;BME280;46163;52.306;5.634;2023-12-29T02:25:52;100409.22;;;9.20;99.71
60319;BME280;46163;52.306;5.634;2023-12-29T02:28:24;100416.38;;;9.26;99.28
60319;BME280;46163;52.306;5.634;2023-12-29T02:31:09;100379.22;;;9.13;99.42
60319;BME280;46163;52.306;5.634;2023-12-29T02:33:40;100402.09;;;9.27;99.13
60319;BME280;46163;52.306;5.634;2023-12-29T02:36:06;100400.44;;;9.26;99.34
60319;BME280;46163;52.306;5.634;2023-12-29T02:38:32;100401.88;;;9.35;99.05
60319;BME280;46163;52.306;5.634;2023-12-29T02:40:59;100405.16;;;9.24;100.00
60319;BME280;46163;52.306;5.634;2023-12-29T02:43:24;100412.09;;;9.25;99.76
60319;BME280;46163;52.306;5.634;2023-12-29T02:45:50;100397.38;;;9.16;100.00
60319;BME280;46163;52.306;5.634;2023-12-29T02:48:16;100405.97;;;9.24;99.70
60319;BME280;46163;52.306;5.634;2023-12-29T02:50:41;100410.06;;;9.27;100.00
60319;BME280;46163;52.306;5.634;2023-12-29T02:53:07;100390.47;;;9.21;99.77
60319;BME280;46163;52.306;5.634;2023-12-29T02:55:32;100401.06;;;9.21;100.00
60319;BME280;46163;52.306;5.634;2023-12-29T02:57:58;100403.91;;;9.20;99.38
60319;BME280;46163;52.306;5.634;2023-12-29T03:00:23;100407.00;;;9.23;99.96
60319;BME280;46163;52.306;5.634;2023-12-29T03:02:49;100412.91;;;9.25;99.19
60319;BME280;46163;52.306;5.634;2023-12-29T03:05:14;100399.22;;;9.15;99.00
60319;BME280;46163;52.306;5.634;2023-12-29T03:07:40;100404.94;;;9.19;100.00
60319;BME280;46163;52.306;5.634;2023-12-29T03:10:06;100392.06;;;9.16;99.38
60319;BME280;46163;52.306;5.634;2023-12-29T03:12:32;100406.16;;;9.16;99.21
60319;BME280;46163;52.306;5.634;2023-12-29T03:14:57;100384.47;;;8.99;99.90
60319;BME280;46163;52.306;5.634;2023-12-29T03:17:23;100402.28;;;9.12;99.24
60319;BME280;46163;52.306;5.634;2023-12-29T03:19:48;100403.50;;;9.10;99.50
60319;BME280;46163;52.306;5.634;2023-12-29T03:22:13;100404.31;;;9.03;99.99
60319;BME280;46163;52.306;5.634;2023-12-29T03:24:41;100406.75;;;8.98;100.00
60319;BME280;46163;52.306;5.634;2023-12-29T03:27:10;100424.94;;;9.08;99.83
60319;BME280;46163;52.306;5.634;2023-12-29T03:29:36;100408.41;;;9.06;100.00
60319;BME280;46163;52.306;5.634;2023-12-29T03:32:01;100398.41;;;9.15;99.20
60319;BME280;46163;52.306;5.634;2023-12-29T03:34:28;100418.59;;;9.09;99.40
60319;BME280;46163;52.306;5.634;2023-12-29T03:36:53;100425.53;;;9.10;99.73
60319;BME280;46163;52.306;5.634;2023-12-29T03:39:19;100421.66;;;9.06;99.13
60319;BME280;46163;52.306;5.634;2023-12-29T03:41:44;100396.13;;;8.98;99.82
60319;BME280;46163;52.306;5.634;2023-12-29T03:44:09;100418.38;;;8.97;99.51
60319;BME280;46163;52.306;5.634;2023-12-29T03:46:35;100408.34;;;8.86;99.20
60319;BME280;46163;52.306;5.634;2023-12-29T03:49:00;100414.66;;;8.85;99.49
60319;BME280;46163;52.306;5.634;2023-12-29T03:51:26;100401.78;;;8.82;99.72
60319;BME280;46163;52.306;5.634;2023-12-29T03:53:51;100393.59;;;8.77;99.83
60319;BME280;46163;52.306;5.634;2023-12-29T03:56:18;100394.00;;;8.74;100.00
60319;BME280;46163;52.306;5.634;2023-12-29T03:58:47;100383.38;;;8.67;100.00
60319;BME280;46163;52.306;5.634;2023-12-29T04:01:13;100393.16;;;8.67;100.00
60319;BME280;46163;52.306;5.634;2023-12-29T04:03:39;100375.78;;;8.58;100.00
60319;BME280;46163;52.306;5.634;2023-12-29T04:06:06;100375.41;;;8.61;100.00
60319;BME280;46163;52.306;5.634;2023-12-29T04:11:33;100363.34;;;8.52;100.00
60319;BME280;46163;52.306;5.634;2023-12-29T04:13:58;100371.91;;;8.54;100.00
60319;BME280;46163;52.306;5.634;2023-12-29T04:16:24;100374.75;;;8.59;99.54
60319;BME280;46163;52.306;5.634;2023-12-29T04:18:49;100379.25;;;8.52;99.86
60319;BME280;46163;52.306;5.634;2023-12-29T04:21:15;100372.44;;;8.42;100.00
60319;BME280;46163;52.306;5.634;2023-12-29T04:23:40;100370.28;;;8.53;100.00
60319;BME280;46163;52.306;5.634;2023-12-29T04:26:07;100376.63;;;8.65;99.89
60319;BME280;46163;52.306;5.634;2023-12-29T04:28:33;100376.22;;;8.68;100.00
60319;BME280;46163;52.306;5.634;2023-12-29T04:30:59;100372.94;;;8.59;100.00
60319;BME280;46163;52.306;5.634;2023-12-29T04:33:24;100379.28;;;8.65;100.00
60319;BME280;46163;52.306;5.634;2023-12-29T04:35:50;100387.28;;;8.71;100.00
60319;BME280;46163;52.306;5.634;2023-12-29T04:38:15;100394.78;;;8.68;100.00
60319;BME280;46163;52.306;5.634;2023-12-29T04:40:44;100392.38;;;8.73;100.00
60319;BME280;46163;52.306;5.634;2023-12-29T04:43:09;100408.28;;;8.73;100.00
60319;BME280;46163;52.306;5.634;2023-12-29T04:45:35;100405.78;;;8.58;100.00
60319;BME280;46163;52.306;5.634;2023-12-29T04:48:00;100416.75;;;8.48;100.00
60319;BME280;46163;52.306;5.634;2023-12-29T04:50:26;100410.59;;;8.41;100.00
60319;BME280;46163;52.306;5.634;2023-12-29T04:52:51;100401.16;;;8.73;100.00
60319;BME280;46163;52.306;5.634;2023-12-29T04:55:17;100408.22;;;8.60;100.00
60319;BME280;46163;52.306;5.634;2023-12-29T04:57:42;100402.91;;;8.53;100.00
60319;BME280;46163;52.306;5.634;2023-12-29T05:00:08;100375.59;;;8.59;100.00
60319;BME280;46163;52.306;5.634;2023-12-29T05:02:33;100393.28;;;8.45;100.00
60319;BME280;46163;52.306;5.634;2023-12-29T05:04:59;100389.38;;;8.41;100.00
60319;BME280;46163;52.306;5.634;2023-12-29T05:07:24;100396.25;;;8.70;100.00
60319;BME280;46163;52.306;5.634;2023-12-29T05:09:50;100402.97;;;8.66;100.00
60319;BME280;46163;52.306;5.634;2023-12-29T05:12:15;100398.88;;;8.64;100.00
60319;BME280;46163;52.306;5.634;2023-12-29T05:14:41;100388.66;;;8.67;100.00
60319;BME280;46163;52.306;5.634;2023-12-29T05:17:06;100387.41;;;8.57;100.00
60319;BME280;46163;52.306;5.634;2023-12-29T05:19:33;100385.44;;;8.72;100.00
60319;BME280;46163;52.306;5.634;2023-12-29T05:21:59;100382.94;;;8.57;100.00
60319;BME280;46163;52.306;5.634;2023-12-29T05:24:24;100376.44;;;8.66;100.00
60319;BME280;46163;52.306;5.634;2023-12-29T05:26:50;100393.41;;;8.72;100.00
60319;BME280;46163;52.306;5.634;2023-12-29T05:29:15;100409.44;;;8.57;100.00
60319;BME280;46163;52.306;5.634;2023-12-29T05:31:41;100415.59;;;8.64;100.00
60319;BME280;46163;52.306;5.634;2023-12-29T05:34:06;100416.66;;;8.76;100.00
60319;BME280;46163;52.306;5.634;2023-12-29T05:36:35;100415.22;;;8.74;100.00
60319;BME280;46163;52.306;5.634;2023-12-29T05:39:01;100411.56;;;8.75;100.00
60319;BME280;46163;52.306;5.634;2023-12-29T05:41:26;100408.44;;;8.58;100.00
60319;BME280;46163;52.306;5.634;2023-12-29T05:43:52;100405.41;;;8.68;100.00
60319;BME280;46163;52.306;5.634;2023-12-29T05:46:17;100392.81;;;8.83;100.00
60319;BME280;46163;52.306;5.634;2023-12-29T05:48:43;100393.59;;;8.77;100.00
60319;BME280;46163;52.306;5.634;2023-12-29T05:51:10;100407.56;;;8.99;99.01
60319;BME280;46163;52.306;5.634;2023-12-29T05:53:36;100388.69;;;8.74;99.80
60319;BME280;46163;52.306;5.634;2023-12-29T05:56:01;100394.25;;;8.79;99.65
60319;BME280;46163;52.306;5.634;2023-12-29T05:58:27;100396.09;;;8.92;98.78
60319;BME280;46163;52.306;5.634;2023-12-29T06:00:54;100402.81;;;8.81;99.09
60319;BME280;46163;52.306;5.634;2023-12-29T06:03:20;100400.78;;;8.90;98.99
60319;BME280;46163;52.306;5.634;2023-12-29T06:05:45;100398.34;;;8.88;98.86
60319;BME280;46163;52.306;5.634;2023-12-29T06:08:11;100392.44;;;8.99;97.71
60319;BME280;46163;52.306;5.634;2023-12-29T06:10:37;100387.94;;;9.00;97.91
60319;BME280;46163;52.306;5.634;2023-12-29T06:13:03;100386.72;;;8.96;97.89
60319;BME280;46163;52.306;5.634;2023-12-29T06:15:29;100385.06;;;8.88;99.37
60319;BME280;46163;52.306;5.634;2023-12-29T06:17:54;100385.09;;;9.01;97.53
60319;BME280;46163;52.306;5.634;2023-12-29T06:20:20;100381.41;;;9.02;97.81
60319;BME280;46163;52.306;5.634;2023-12-29T06:22:45;100379.78;;;8.95;97.80
60319;BME280;46163;52.306;5.634;2023-12-29T06:25:11;100373.66;;;9.01;97.72
60319;BME280;46163;52.306;5.634;2023-12-29T06:27:38;100377.94;;;8.89;98.72
60319;BME280;46163;52.306;5.634;2023-12-29T06:30:07;100363.63;;;8.90;97.61
60319;BME280;46163;52.306;5.634;2023-12-29T06:32:34;100375.06;;;8.90;96.85
60319;BME280;46163;52.306;5.634;2023-12-29T06:34:59;100368.09;;;8.69;99.03
60319;BME280;46163;52.306;5.634;2023-12-29T06:37:25;100381.81;;;8.86;97.92
60319;BME280;46163;52.306;5.634;2023-12-29T06:39:50;100367.28;;;8.75;98.10
60319;BME280;46163;52.306;5.634;2023-12-29T06:42:16;100380.16;;;8.85;98.14
60319;BME280;46163;52.306;5.634;2023-12-29T06:44:41;100361.00;;;8.96;96.76
60319;BME280;46163;52.306;5.634;2023-12-29T06:47:06;100336.28;;;8.89;97.87
60319;BME280;46163;52.306;5.634;2023-12-29T06:49:34;100340.59;;;9.03;96.46
60319;BME280;46163;52.306;5.634;2023-12-29T06:51:59;100356.91;;;9.00;97.19
60319;BME280;46163;52.306;5.634;2023-12-29T06:54:25;100350.38;;;9.03;96.34
60319;BME280;46163;52.306;5.634;2023-12-29T06:56:50;100336.09;;;8.91;97.04
60319;BME280;46163;52.306;5.634;2023-12-29T06:59:15;100348.13;;;9.00;96.59
60319;BME280;46163;52.306;5.634;2023-12-29T07:01:41;100357.53;;;9.09;95.55
60319;BME280;46163;52.306;5.634;2023-12-29T07:04:06;100358.13;;;8.91;96.93
60319;BME280;46163;52.306;5.634;2023-12-29T07:06:35;100358.97;;;9.12;95.95
60319;BME280;46163;52.306;5.634;2023-12-29T07:09:01;100334.03;;;8.93;94.15
60319;BME280;46163;52.306;5.634;2023-12-29T07:11:28;100357.72;;;9.01;96.14
60319;BME280;46163;52.306;5.634;2023-12-29T07:13:53;100359.38;;;9.02;96.26
60319;BME280;46163;52.306;5.634;2023-12-29T07:16:19;100367.56;;;9.14;96.04
60319;BME280;46163;52.306;5.634;2023-12-29T07:18:45;100371.22;;;8.99;96.46
60319;BME280;46163;52.306;5.634;2023-12-29T07:21:11;100373.69;;;9.07;96.08
60319;BME280;46163;52.306;5.634;2023-12-29T07:23:38;100367.94;;;9.11;95.88
60319;BME280;46163;52.306;5.634;2023-12-29T07:26:03;100371.44;;;9.04;96.04
60319;BME280;46163;52.306;5.634;2023-12-29T07:28:31;100371.63;;;9.10;96.31
60319;BME280;46163;52.306;5.634;2023-12-29T07:30:56;100373.28;;;9.04;95.62
60319;BME280;46163;52.306;5.634;2023-12-29T07:33:22;100379.56;;;9.03;97.37
60319;BME280;46163;52.306;5.634;2023-12-29T07:35:49;100382.84;;;8.98;96.37
60319;BME280;46163;52.306;5.634;2023-12-29T07:38:15;100381.81;;;8.93;97.24
60319;BME280;46163;52.306;5.634;2023-12-29T07:40:41;100381.44;;;8.96;97.57
60319;BME280;46163;52.306;5.634;2023-12-29T07:43:06;100392.84;;;8.96;96.96
60319;BME280;46163;52.306;5.634;2023-12-29T07:45:32;100387.28;;;8.85;96.71
60319;BME280;46163;52.306;5.634;2023-12-29T07:47:57;100393.06;;;9.01;97.14
60319;BME280;46163;52.306;5.634;2023-12-29T07:50:23;100367.13;;;8.90;97.23
60319;BME280;46163;52.306;5.634;2023-12-29T07:52:49;100393.88;;;9.09;98.01
60319;BME280;46163;52.306;5.634;2023-12-29T07:55:14;100388.78;;;9.00;98.30
60319;BME280;46163;52.306;5.634;2023-12-29T07:57:43;100376.34;;;9.14;97.54
60319;BME280;46163;52.306;5.634;2023-12-29T08:00:10;100386.31;;;8.99;98.70
60319;BME280;46163;52.306;5.634;2023-12-29T08:02:35;100387.19;;;9.13;97.65
60319;BME280;46163;52.306;5.634;2023-12-29T08:05:02;100369.59;;;9.12;97.38
60319;BME280;46163;52.306;5.634;2023-12-29T08:07:27;100396.16;;;9.05;98.41
60319;BME280;46163;52.306;5.634;2023-12-29T08:09:53;100390.81;;;8.98;99.11
60319;BME280;46163;52.306;5.634;2023-12-29T08:12:18;100393.25;;;8.93;100.00
60319;BME280;46163;52.306;5.634;2023-12-29T08:14:44;100395.72;;;8.95;99.28
60319;BME280;46163;52.306;5.634;2023-12-29T08:17:10;100353.56;;;8.65;99.71
60319;BME280;46163;52.306;5.634;2023-12-29T08:19:36;100400.38;;;8.93;99.96
60319;BME280;46163;52.306;5.634;2023-12-29T08:22:02;100395.97;;;9.13;99.83
60319;BME280;46163;52.306;5.634;2023-12-29T08:24:27;100410.66;;;9.16;99.19
60319;BME280;46163;52.306;5.634;2023-12-29T08:26:53;100401.84;;;9.09;99.99
60319;BME280;46163;52.306;5.634;2023-12-29T08:29:18;100399.81;;;9.17;98.84
60319;BME280;46163;52.306;5.634;2023-12-29T08:31:45;100411.63;;;9.01;100.00
60319;BME280;46163;52.306;5.634;2023-12-29T08:34:10;100383.44;;;8.94;100.00
60319;BME280;46163;52.306;5.634;2023-12-29T08:36:36;100397.34;;;9.02;100.00
60319;BME280;46163;52.306;5.634;2023-12-29T08:39:02;100379.34;;;8.91;100.00
60319;BME280;46163;52.306;5.634;2023-12-29T08:41:28;100396.97;;;9.12;100.00
60319;BME280;46163;52.306;5.634;2023-12-29T08:43:53;100372.84;;;9.07;100.00
60319;BME280;46163;52.306;5.634;2023-12-29T08:46:19;100394.13;;;9.14;100.00
60319;BME280;46163;52.306;5.634;2023-12-29T08:48:46;100398.00;;;9.18;99.01
60319;BME280;46163;52.306;5.634;2023-12-29T08:51:11;100404.34;;;9.23;100.00
60319;BME280;46163;52.306;5.634;2023-12-29T08:53:37;100407.97;;;9.02;100.00
60319;BME280;46163;52.306;5.634;2023-12-29T08:56:03;100402.25;;;9.05;100.00
60319;BME280;46163;52.306;5.634;2023-12-29T08:58:29;100411.44;;;9.10;100.00
60319;BME280;46163;52.306;5.634;2023-12-29T09:00:55;100402.44;;;8.97;100.00
60319;BME280;46163;52.306;5.634;2023-12-29T09:03:21;100388.56;;;8.95;100.00
60319;BME280;46163;52.306;5.634;2023-12-29T09:05:46;100357.94;;;8.99;100.00
60319;BME280;46163;52.306;5.634;2023-12-29T09:08:12;100367.13;;;8.97;100.00
60319;BME280;46163;52.306;5.634;2023-12-29T09:10:37;100377.31;;;8.93;100.00
60319;BME280;46163;52.306;5.634;2023-12-29T09:13:04;100397.78;;;9.13;100.00
60319;BME280;46163;52.306;5.634;2023-12-29T09:15:30;100395.31;;;9.11;100.00
60319;BME280;46163;52.306;5.634;2023-12-29T09:17:56;100384.88;;;8.90;100.00
60319;BME280;46163;52.306;5.634;2023-12-29T09:20:22;100379.78;;;8.95;100.00
60319;BME280;46163;52.306;5.634;2023-12-29T09:22:47;100388.16;;;8.98;100.00
60319;BME280;46163;52.306;5.634;2023-12-29T09:25:13;100390.81;;;9.12;100.00
60319;BME280;46163;52.306;5.634;2023-12-29T09:27:39;100389.94;;;8.85;100.00
60319;BME280;46163;52.306;5.634;2023-12-29T09:30:05;100379.34;;;8.78;100.00
60319;BME280;46163;52.306;5.634;2023-12-29T09:32:31;100390.59;;;8.87;100.00
60319;BME280;46163;52.306;5.634;2023-12-29T09:34:56;100390.59;;;8.93;100.00
60319;BME280;46163;52.306;5.634;2023-12-29T09:37:22;100396.31;;;8.97;100.00
60319;BME280;46163;52.306;5.634;2023-12-29T09:39:48;100407.56;;;8.99;100.00
60319;BME280;46163;52.306;5.634;2023-12-29T09:42:20;100396.94;;;8.99;100.00
60319;BME280;46163;52.306;5.634;2023-12-29T09:44:51;100403.06;;;8.99;100.00
60319;BME280;46163;52.306;5.634;2023-12-29T09:47:26;100391.66;;;9.05;100.00
60319;BME280;46163;52.306;5.634;2023-12-29T09:49:53;100405.94;;;9.11;100.00
60319;BME280;46163;52.306;5.634;2023-12-29T09:52:20;100395.13;;;9.13;100.00
60319;BME280;46163;52.306;5.634;2023-12-29T09:54:48;100405.97;;;9.18;100.00
60319;BME280;46163;52.306;5.634;2023-12-29T09:57:15;100401.69;;;9.23;100.00
60319;BME280;46163;52.306;5.634;2023-12-29T09:59:41;100405.16;;;9.24;100.00
60319;BME280;46163;52.306;5.634;2023-12-29T10:02:15;100399.84;;;9.24;100.00
60319;BME280;46163;52.306;5.634;2023-12-29T10:04:43;100408.41;;;9.26;100.00
60319;BME280;46163;52.306;5.634;2023-12-29T10:07:15;100420.47;;;9.35;100.00
60319;BME280;46163;52.306;5.634;2023-12-29T10:09:45;100426.41;;;9.37;100.00
60319;BME280;46163;52.306;5.634;2023-12-29T10:12:11;100426.41;;;9.37;100.00
60319;BME280;46163;52.306;5.634;2023-12-29T10:17:19;100433.59;;;9.50;100.00
60319;BME280;46163;52.306;5.634;2023-12-29T10:20:01;100433.16;;;9.53;100.00
60319;BME280;46163;52.306;5.634;2023-12-29T10:25:05;100436.44;;;9.61;100.00
60319;BME280;46163;52.306;5.634;2023-12-29T10:27:31;100418.03;;;9.80;100.00
60319;BME280;46163;52.306;5.634;2023-12-29T10:29:57;100431.34;;;9.67;100.00
60319;BME280;46163;52.306;5.634;2023-12-29T10:32:22;100437.47;;;9.67;100.00
60319;BME280;46163;52.306;5.634;2023-12-29T10:34:48;100426.84;;;9.60;100.00
60319;BME280;46163;52.306;5.634;2023-12-29T10:37:22;100438.06;;;9.62;100.00
60319;BME280;46163;52.306;5.634;2023-12-29T10:39:57;100428.09;;;9.65;100.00
60319;BME280;46163;52.306;5.634;2023-12-29T10:42:22;100452.38;;;9.61;100.00
60319;BME280;46163;52.306;5.634;2023-12-29T10:44:47;100437.66;;;9.52;100.00
60319;BME280;46163;52.306;5.634;2023-12-29T10:47:13;100427.66;;;9.61;100.00
60319;BME280;46163;52.306;5.634;2023-12-29T10:49:40;100449.94;;;9.60;100.00
60319;BME280;46163;52.306;5.634;2023-12-29T10:52:16;100437.66;;;9.52;100.00
60319;BME280;46163;52.306;5.634;2023-12-29T10:54:42;100421.31;;;9.35;100.00
60319;BME280;46163;52.306;5.634;2023-12-29T10:57:10;100439.88;;;9.29;100.00
60319;BME280;46163;52.306;5.634;2023-12-29T10:59:36;100446.63;;;9.25;100.00
60319;BME280;46163;52.306;5.634;2023-12-29T11:02:01;100416.81;;;9.23;100.00
60319;BME280;46163;52.306;5.634;2023-12-29T11:04:29;100425.97;;;9.14;100.00
60319;BME280;46163;52.306;5.634;2023-12-29T11:06:54;100457.59;;;9.09;100.00
60319;BME280;46163;52.306;5.634;2023-12-29T11:09:30;100474.56;;;9.07;100.00
60319;BME280;46163;52.306;5.634;2023-12-29T11:12:03;100461.88;;;9.10;100.00
60319;BME280;46163;52.306;5.634;2023-12-29T11:14:29;100477.41;;;9.06;100.00
60319;BME280;46163;52.306;5.634;2023-12-29T11:16:56;100473.72;;;9.07;100.00
60319;BME280;46163;52.306;5.634;2023-12-29T11:19:22;100479.25;;;9.05;100.00
60319;BME280;46163;52.306;5.634;2023-12-29T11:21:57;100470.47;;;9.12;100.00
60319;BME280;46163;52.306;5.634;2023-12-29T11:24:23;100480.72;;;9.28;100.00
60319;BME280;46163;52.306;5.634;2023-12-29T11:26:49;100476.66;;;9.25;100.00
60319;BME280;46163;52.306;5.634;2023-12-29T11:29:16;100466.63;;;9.14;100.00
60319;BME280;46163;52.306;5.634;2023-12-29T11:31:41;100481.94;;;9.19;100.00
60319;BME280;46163;52.306;5.634;2023-12-29T11:40:34;100475.41;;;9.28;100.00
60319;BME280;46163;52.306;5.634;2023-12-29T11:43:06;100480.72;;;9.28;100.00
60319;BME280;46163;52.306;5.634;2023-12-29T11:45:34;100481.78;;;9.47;100.00
60319;BME280;46163;52.306;5.634;2023-12-29T11:48:01;100455.41;;;9.25;100.00
60319;BME280;46163;52.306;5.634;2023-12-29T11:50:35;100457.25;;;9.31;100.00
60319;BME280;46163;52.306;5.634;2023-12-29T11:53:06;100472.19;;;9.39;100.00
60319;BME280;46163;52.306;5.634;2023-12-29T11:55:37;100480.38;;;9.51;100.00
60319;BME280;46163;52.306;5.634;2023-12-29T11:58:26;100487.31;;;9.45;100.00
60319;BME280;46163;52.306;5.634;2023-12-29T12:00:53;100490.16;;;9.37;100.00
60319;BME280;46163;52.306;5.634;2023-12-29T12:03:25;100489.34;;;9.43;100.00
60319;BME280;46163;52.306;5.634;2023-12-29T12:05:52;100479.56;;;9.50;100.00
60319;BME280;46163;52.306;5.634;2023-12-29T12:08:36;100472.38;;;9.44;100.00
60319;BME280;46163;52.306;5.634;2023-12-29T12:13:54;100472.22;;;9.59;100.00
60319;BME280;46163;52.306;5.634;2023-12-29T12:19:14;100478.75;;;9.56;100.00
60319;BME280;46163;52.306;5.634;2023-12-29T12:21:45;100472.81;;;9.61;100.00
60319;BME280;46163;52.306;5.634;2023-12-29T12:24:13;100469.75;;;9.57;100.00
60319;BME280;46163;52.306;5.634;2023-12-29T12:26:40;100475.28;;;9.62;100.00
60319;BME280;46163;52.306;5.634;2023-12-29T12:29:06;100475.28;;;9.62;100.00
60319;BME280;46163;52.306;5.634;2023-12-29T12:31:33;100460.56;;;9.67;100.00
60319;BME280;46163;52.306;5.634;2023-12-29T12:33:59;100463.63;;;9.70;100.00
60319;BME280;46163;52.306;5.634;2023-12-29T12:36:26;100456.28;;;9.66;100.00
60319;BME280;46163;52.306;5.634;2023-12-29T12:38:53;100475.50;;;9.68;99.66
60319;BME280;46163;52.306;5.634;2023-12-29T12:41:20;100459.53;;;9.61;97.75
60319;BME280;46163;52.306;5.634;2023-12-29T12:43:54;100457.91;;;9.67;96.91
60319;BME280;46163;52.306;5.634;2023-12-29T12:46:23;100459.13;;;9.64;96.21
60319;BME280;46163;52.306;5.634;2023-12-29T12:48:52;100457.69;;;9.55;97.26
60319;BME280;46163;52.306;5.634;2023-12-29T12:51:19;100460.53;;;9.53;96.53
60319;BME280;46163;52.306;5.634;2023-12-29T12:53:46;100461.78;;;9.51;96.35
60319;BME280;46163;52.306;5.634;2023-12-29T12:56:12;100466.88;;;9.52;94.39
60319;BME280;46163;52.306;5.634;2023-12-29T12:58:38;100456.06;;;9.47;96.49
60319;BME280;46163;52.306;5.634;2023-12-29T13:01:04;100458.09;;;9.39;97.28
60319;BME280;46163;52.306;5.634;2023-12-29T13:03:30;100450.31;;;9.37;96.77
60319;BME280;46163;52.306;5.634;2023-12-29T13:05:57;100457.88;;;9.47;96.70
60319;BME280;46163;52.306;5.634;2023-12-29T13:08:24;100454.03;;;9.49;98.54
60319;BME280;46163;52.306;5.634;2023-12-29T13:10:51;100451.38;;;9.56;97.67
60319;BME280;46163;52.306;5.634;2023-12-29T13:13:17;100447.25;;;9.53;96.74
60319;BME280;46163;52.306;5.634;2023-12-29T13:15:51;100439.91;;;9.49;96.04